createdAt,value
2017-08-25T00:01:25.158Z,14.27
2017-08-25T00:03:53.057Z,15.60
2017-08-25T00:06:20.602Z,12.90
2017-08-25T00:08:48.178Z,11.07
2017-08-25T00:11:15.748Z,12.80
2017-08-25T00:13:43.340Z,10.70
2017-08-25T00:16:10.882Z,13.73
2017-08-25T00:18:38.448Z,13.23
2017-08-25T00:21:05.985Z,12.20
2017-08-25T00:23:33.514Z,8.50
2017-08-25T00:26:01.078Z,7.57
2017-08-25T00:28:29.622Z,9.73
2017-08-25T00:30:57.147Z,13.60
2017-08-25T00:33:24.701Z,12.80
2017-08-25T00:35:52.234Z,16.43
2017-08-25T00:38:19.832Z,14.73
2017-08-25T00:40:47.398Z,16.20
2017-08-25T00:43:14.922Z,20.03
2017-08-25T00:45:42.463Z,14.53
2017-08-25T00:48:10.014Z,8.37
2017-08-25T00:50:37.586Z,10.17
2017-08-25T00:53:05.133Z,7.93
2017-08-25T00:55:32.711Z,13.57
2017-08-25T00:58:00.252Z,14.07
2017-08-25T01:00:27.778Z,12.60
2017-08-25T01:02:55.347Z,11.93
2017-08-25T01:05:22.898Z,14.60
2017-08-25T01:07:50.434Z,14.27
2017-08-25T01:10:17.954Z,14.30
2017-08-25T01:12:46.482Z,19.10
2017-08-25T01:15:14.030Z,16.60
2017-08-25T01:17:41.606Z,19.30
2017-08-25T01:20:09.177Z,15.40
2017-08-25T01:22:36.730Z,16.87
2017-08-25T01:25:04.296Z,19.33
2017-08-25T01:27:31.856Z,17.80
2017-08-25T01:29:59.417Z,16.93
2017-08-25T01:32:26.988Z,12.63
2017-08-25T01:34:55.316Z,11.13
2017-08-25T01:37:22.871Z,12.27
2017-08-25T01:39:50.483Z,16.80
2017-08-25T01:42:19.504Z,11.40
2017-08-25T01:44:47.076Z,14.40
2017-08-25T01:47:14.636Z,12.00
2017-08-25T01:49:42.200Z,14.37
2017-08-25T01:52:09.778Z,14.73
2017-08-25T01:54:37.330Z,9.97
2017-08-25T01:57:04.907Z,19.30
2017-08-25T01:59:32.490Z,19.23
2017-08-25T02:02:00.034Z,17.10
2017-08-25T02:04:27.611Z,17.20
2017-08-25T02:06:55.152Z,14.13
2017-08-25T02:09:22.694Z,16.93
2017-08-25T02:11:50.269Z,13.00
2017-08-25T02:14:17.828Z,12.70
2017-08-25T02:16:45.387Z,13.23
2017-08-25T02:19:12.976Z,17.20
2017-08-25T02:21:46.090Z,16.80
2017-08-25T02:24:13.680Z,19.87
2017-08-25T02:26:41.225Z,22.60
2017-08-25T02:29:08.792Z,19.13
2017-08-25T02:31:36.364Z,19.90
2017-08-25T02:34:03.924Z,14.40
2017-08-25T02:36:31.462Z,13.40
2017-08-25T02:38:59.021Z,12.07
2017-08-25T02:41:26.591Z,13.67
2017-08-25T02:43:54.338Z,16.67
2017-08-25T02:46:21.872Z,17.80
2017-08-25T02:48:49.413Z,17.00
2017-08-25T02:51:16.960Z,12.07
2017-08-25T02:53:45.776Z,16.73
2017-08-25T02:56:13.333Z,14.00
2017-08-25T02:58:40.886Z,14.63
2017-08-25T03:01:08.429Z,10.07
2017-08-25T03:03:36.992Z,15.93
2017-08-25T03:06:04.544Z,13.10
2017-08-25T03:08:32.095Z,12.03
2017-08-25T03:10:59.642Z,11.97
2017-08-25T03:13:27.190Z,10.70
2017-08-25T03:15:54.771Z,15.73
2017-08-25T03:18:22.304Z,14.43
2017-08-25T03:20:49.839Z,15.73
2017-08-25T03:23:17.416Z,21.50
2017-08-25T03:25:45.180Z,17.37
2017-08-25T03:28:12.776Z,15.70
2017-08-25T03:30:40.414Z,18.07
2017-08-25T03:33:09.028Z,17.53
2017-08-25T03:35:37.373Z,16.30
2017-08-25T03:38:04.953Z,16.43
2017-08-25T03:40:32.789Z,22.13
2017-08-25T03:43:00.574Z,17.93
2017-08-25T03:45:28.400Z,18.30
2017-08-25T03:47:56.217Z,14.60
2017-08-25T03:50:23.983Z,13.93
2017-08-25T03:52:51.803Z,19.47
2017-08-25T03:55:19.553Z,13.30
2017-08-25T03:57:47.323Z,18.83
2017-08-25T04:00:15.248Z,13.40
2017-08-25T04:02:43.834Z,29.43
2017-08-25T04:05:11.678Z,14.77
2017-08-25T04:07:40.300Z,14.73
2017-08-25T04:10:08.821Z,15.80
2017-08-25T04:12:36.759Z,19.20
2017-08-25T04:15:04.586Z,14.70
2017-08-25T04:17:32.238Z,16.53
2017-08-25T04:20:00.047Z,12.47
2017-08-25T04:22:27.829Z,15.30
2017-08-25T04:24:55.676Z,15.43
2017-08-25T04:27:23.437Z,15.93
2017-08-25T04:29:52.042Z,18.13
2017-08-25T04:32:20.039Z,14.17
2017-08-25T04:34:48.697Z,17.03
2017-08-25T04:37:16.606Z,21.43
2017-08-25T04:39:44.293Z,13.20
2017-08-25T04:42:13.098Z,10.53
2017-08-25T04:44:41.013Z,16.97
2017-08-25T04:47:08.929Z,15.17
2017-08-25T04:49:36.584Z,11.77
2017-08-25T04:52:04.519Z,13.30
2017-08-25T04:54:32.579Z,12.87
2017-08-25T04:57:01.228Z,18.03
2017-08-25T04:59:28.944Z,16.50
2017-08-25T05:01:56.489Z,12.47
2017-08-25T05:04:24.288Z,19.13
2017-08-25T05:06:52.078Z,14.77
2017-08-25T05:09:20.433Z,11.37
2017-08-25T05:11:48.324Z,13.50
2017-08-25T05:14:16.484Z,9.80
2017-08-25T05:16:44.277Z,9.87
2017-08-25T05:19:12.053Z,12.53
2017-08-25T05:21:39.631Z,9.53
2017-08-25T05:24:07.154Z,9.50
2017-08-25T05:26:34.981Z,9.17
2017-08-25T05:29:02.579Z,6.90
2017-08-25T05:31:30.597Z,9.13
2017-08-25T05:33:58.377Z,7.20
2017-08-25T05:36:26.255Z,8.87
2017-08-25T05:38:54.100Z,9.57
2017-08-25T05:41:21.673Z,8.03
2017-08-25T05:43:49.441Z,7.60
2017-08-25T05:46:17.316Z,10.00
2017-08-25T05:48:45.066Z,6.70
2017-08-25T05:51:13.789Z,6.80
2017-08-25T05:53:41.568Z,6.77
2017-08-25T05:56:09.359Z,9.33
2017-08-25T05:58:37.046Z,7.23
2017-08-25T06:01:04.752Z,6.13
2017-08-25T06:03:32.342Z,6.00
2017-08-25T06:06:00.758Z,6.73
2017-08-25T06:08:28.534Z,5.63
2017-08-25T06:10:56.370Z,6.20
2017-08-25T06:13:24.153Z,7.30
2017-08-25T06:15:52.098Z,7.20
2017-08-25T06:18:19.866Z,5.00
2017-08-25T06:20:49.220Z,6.30
2017-08-25T06:23:17.185Z,5.93
2017-08-25T06:25:45.061Z,6.40
2017-08-25T06:28:12.842Z,6.37
2017-08-25T06:30:58.849Z,5.47
2017-08-25T06:33:29.886Z,5.23
2017-08-25T06:35:59.957Z,5.30
2017-08-25T06:38:27.729Z,5.80
2017-08-25T06:40:55.433Z,5.87
2017-08-25T06:43:24.692Z,5.00
2017-08-25T06:45:52.577Z,5.60
2017-08-25T06:48:21.310Z,6.10
2017-08-25T06:50:51.085Z,6.77
2017-08-25T06:53:20.347Z,5.43
2017-08-25T06:55:52.234Z,4.97
2017-08-25T06:58:23.563Z,5.40
2017-08-25T07:00:53.958Z,6.03
2017-08-25T07:03:21.553Z,5.50
2017-08-25T07:05:49.454Z,4.97
2017-08-25T07:08:37.866Z,6.13
2017-08-25T07:13:41.520Z,5.67
2017-08-25T07:16:09.106Z,5.53
2017-08-25T07:18:36.674Z,6.57
